aviador You're here:

SKSP Decoded Metar

SAN ANDRES ISLAND in COLOMBIA
Report Time2018-07-22 02:00:00
UTC Time2018-07-22 02:34:53
Flight Rules vfr VFR
Wind050° at 10 kt
W.Decomp.*RWY 06: 9.9 kt HW 1.4 kt LCW
W.Rank050° ranks 4
Current wind is above 050° avg. (7.6)
Visibility9999 m
Phenomena:N/A
Clouds:Few 016 Hf
Overcast 200 Hf
Expected CloudBase > 1,200 ft AGL from Temp-Dew spread
Ceiling20,000 ft
Temp28°C (ISA +13)
Dew Point25°C (84% RH)
Heat Index32.7°C
QNH1012 hPa
Density Alt1,936 ft
Elevation-7 ft
Report Wrong Elevation
Raw Report
SKSP 220200Z 05010KT 9999 FEW016 OVC200 28/25 A2989=

Extra information for SKSP:More info

Metar Taf Metar & Taf Last 4 Metars F.Rules Stats Wind Profile Meteogram Temp Stats Airport Information Weather charts Add Link Nearby VenuesMetar ALERT Operation Metar Decoded Social comments